This is the latest recevied weather packets stored in our database for station/object W4GAP. If no packets are shown the sender has not sent any weather packets the latest 10 day(s).
| Time | Temp. | Humidity | Pressure | Rain* | Wind** | Luminosity | Snow |
|---|---|---|---|---|---|---|---|
| 1778087060 | 26.11° C | 65% | 1011.7 hPa | 0 mm | - | 576 W/m² | - |
| 1778086759 | 26.11° C | 64% | 1011.5 hPa | 0 mm | - | 303 W/m² | - |
| 1778086457 | 25° C | 67% | 1011.7 hPa | 0 mm | - | 701 W/m² | - |
| 1778086153 | 24.44° C | 68% | 1011.7 hPa | 0 mm | - | 395 W/m² | - |
| 1778085850 | 24.44° C | 68% | 1011.9 hPa | 0 mm | - | 151 W/m² | - |
| 1778085548 | 24.44° C | 68% | 1012 hPa | 0 mm | - | 117 W/m² | - |
| 1778085242 | 24.44° C | 68% | 1011.6 hPa | 0 mm | - | 150 W/m² | - |
| 1778084937 | 25° C | 67% | 1011.9 hPa | 0 mm | - | 110 W/m² | - |
| 1778084635 | 24.44° C | 68% | 1011.8 hPa | 0 mm | - | 789 W/m² | - |
| 1778084332 | 23.89° C | 70% | 1012.4 hPa | 0 mm | - | 776 W/m² | - |
| 1778084030 | 23.33° C | 72% | 1012.3 hPa | 0 mm | - | 156 W/m² | - |
| 1778083727 | 22.78° C | 73% | 1012.5 hPa | 0 mm | - | 301 W/m² | - |
| 1778083424 | 22.78° C | 74% | 1012.7 hPa | 0 mm | - | 115 W/m² | - |
| 1778083123 | 22.22° C | 75% | 1012.4 hPa | 0 mm | - | 328 W/m² | - |
| 1778082819 | 21.67° C | 77% | 1012.6 hPa | 0 mm | - | 476 W/m² | - |
| 1778081696 | 20.56° C | 81% | 1013 hPa | 0 mm | - | 55 W/m² | - |
| 1778081394 | 20.56° C | 81% | 1013.1 hPa | 0 mm | - | 38 W/m² | - |
| 1778081091 | 20° C | 81% | 1012.9 hPa | 0 mm | - | 51 W/m² | - |
| 1778080789 | 20° C | 81% | 1012.8 hPa | 0 mm | - | 49 W/m² | - |
| 1778080486 | 20.56° C | 80% | 1012.7 hPa | 0 mm | - | 14 W/m² | - |
| 1778080184 | 20.56° C | 77% | 1012.6 hPa | 0 mm | - | 39 W/m² | - |
| 1778079879 | 20.56° C | 76% | 1013.1 hPa | 0 mm | - | 25 W/m² | - |
| 1778079577 | 21.11° C | 76% | 1012.9 hPa | 0 mm | - | 32 W/m² | - |
| 1778079273 | 20.56° C | 77% | 1012.9 hPa | 0 mm | - | 47 W/m² | - |
| 1778078971 | 20.56° C | 76% | 1012.7 hPa | 0 mm | - | 46 W/m² | - |
* Rain latest hour (hover to see other rain measurements)
** Current wind speed in m/s (hover to see current wind gust speed)